Terminal Aerodrome Forecast
Issued by NWS

Home | Current Version | Previous Version | Text Only | Print | Product List | Glossary On
Versions: 1 2 3 4 5 6 7 8 9 10 11 12 13 14 15 16 17 18 19 20 21 22
000
FTUS41 KGYX 180100 AAA
TAFAUG
TAF AMD
KAUG 180100Z 1801/1824 36011KT 6SM BR SCT008 OVC025
     FM180300 34008KT 3SM -RASN BR OVC008
     FM180600 34007KT 2SM -SN OVC007
     FM181800 30010G23KT P6SM BKN040=

USA.gov is the U.S. government's official web portal to all federal, state and local government web resources and services.